sensor_id;sensor_type;location;lat;lon;timestamp;temperature;humidity
39815;DHT22;25495;45.948;4.568;2022-12-10T00:00:39;0.60;99.90
39815;DHT22;25495;45.948;4.568;2022-12-10T00:03:05;0.60;99.90
39815;DHT22;25495;45.948;4.568;2022-12-10T00:05:33;0.60;99.90
39815;DHT22;25495;45.948;4.568;2022-12-10T00:07:59;0.60;99.90
39815;DHT22;25495;45.948;4.568;2022-12-10T00:10:24;0.60;99.90
39815;DHT22;25495;45.948;4.568;2022-12-10T00:12:50;0.70;99.90
39815;DHT22;25495;45.948;4.568;2022-12-10T00:15:16;0.80;99.90
39815;DHT22;25495;45.948;4.568;2022-12-10T00:17:42;0.80;99.90
39815;DHT22;25495;45.948;4.568;2022-12-10T00:20:08;0.80;99.90
39815;DHT22;25495;45.948;4.568;2022-12-10T00:22:34;0.80;99.90
39815;DHT22;25495;45.948;4.568;2022-12-10T00:25:00;0.90;99.90
39815;DHT22;25495;45.948;4.568;2022-12-10T00:27:26;0.90;99.90
39815;DHT22;25495;45.948;4.568;2022-12-10T00:29:52;0.90;99.90
39815;DHT22;25495;45.948;4.568;2022-12-10T00:32:17;1.00;99.90
39815;DHT22;25495;45.948;4.568;2022-12-10T00:34:43;1.00;99.90
39815;DHT22;25495;45.948;4.568;2022-12-10T00:37:09;1.10;99.90
39815;DHT22;25495;45.948;4.568;2022-12-10T00:39:35;1.10;99.90
39815;DHT22;25495;45.948;4.568;2022-12-10T00:42:01;1.00;99.90
39815;DHT22;25495;45.948;4.568;2022-12-10T00:44:27;1.10;99.90
39815;DHT22;25495;45.948;4.568;2022-12-10T00:46:52;1.10;99.90
39815;DHT22;25495;45.948;4.568;2022-12-10T00:49:18;1.20;99.90
39815;DHT22;25495;45.948;4.568;2022-12-10T00:51:44;1.20;99.90
39815;DHT22;25495;45.948;4.568;2022-12-10T00:54:09;1.20;99.90
39815;DHT22;25495;45.948;4.568;2022-12-10T00:56:36;1.20;99.90
39815;DHT22;25495;45.948;4.568;2022-12-10T00:59:03;1.20;99.90
39815;DHT22;25495;45.948;4.568;2022-12-10T01:01:31;1.10;99.90
39815;DHT22;25495;45.948;4.568;2022-12-10T01:04:02;1.10;99.90
39815;DHT22;25495;45.948;4.568;2022-12-10T01:06:31;1.10;99.90
39815;DHT22;25495;45.948;4.568;2022-12-10T01:09:01;1.10;99.90
39815;DHT22;25495;45.948;4.568;2022-12-10T01:11:30;1.00;99.90
39815;DHT22;25495;45.948;4.568;2022-12-10T01:13:57;0.70;99.90
39815;DHT22;25495;45.948;4.568;2022-12-10T01:16:23;0.60;99.90
39815;DHT22;25495;45.948;4.568;2022-12-10T01:18:51;0.70;99.90
39815;DHT22;25495;45.948;4.568;2022-12-10T01:21:19;0.60;99.90
39815;DHT22;25495;45.948;4.568;2022-12-10T01:23:47;0.50;99.90
39815;DHT22;25495;45.948;4.568;2022-12-10T01:26:15;0.50;99.90
39815;DHT22;25495;45.948;4.568;2022-12-10T01:28:42;0.50;99.90
39815;DHT22;25495;45.948;4.568;2022-12-10T01:31:18;0.50;99.90
39815;DHT22;25495;45.948;4.568;2022-12-10T01:33:44;0.50;99.90
39815;DHT22;25495;45.948;4.568;2022-12-10T01:36:18;0.40;99.90
39815;DHT22;25495;45.948;4.568;2022-12-10T01:38:44;0.50;99.90
39815;DHT22;25495;45.948;4.568;2022-12-10T01:41:20;0.40;99.90
39815;DHT22;25495;45.948;4.568;2022-12-10T01:46:26;0.40;99.90
39815;DHT22;25495;45.948;4.568;2022-12-10T01:48:52;0.40;99.90
39815;DHT22;25495;45.948;4.568;2022-12-10T01:51:19;0.40;99.90
39815;DHT22;25495;45.948;4.568;2022-12-10T01:53:46;0.50;99.90
39815;DHT22;25495;45.948;4.568;2022-12-10T01:56:13;0.50;99.90
39815;DHT22;25495;45.948;4.568;2022-12-10T01:58:41;0.70;99.90
39815;DHT22;25495;45.948;4.568;2022-12-10T02:01:21;0.50;99.90
39815;DHT22;25495;45.948;4.568;2022-12-10T02:10:07;0.50;99.90
39815;DHT22;25495;45.948;4.568;2022-12-10T02:12:40;0.50;99.90
39815;DHT22;25495;45.948;4.568;2022-12-10T02:15:15;0.50;99.90
39815;DHT22;25495;45.948;4.568;2022-12-10T02:17:45;0.40;99.90
39815;DHT22;25495;45.948;4.568;2022-12-10T02:20:31;0.40;99.90
39815;DHT22;25495;45.948;4.568;2022-12-10T02:23:11;0.30;99.90
39815;DHT22;25495;45.948;4.568;2022-12-10T02:31:25;0.30;99.90
39815;DHT22;25495;45.948;4.568;2022-12-10T02:33:55;0.30;99.90
39815;DHT22;25495;45.948;4.568;2022-12-10T02:36:22;0.30;99.90
39815;DHT22;25495;45.948;4.568;2022-12-10T02:38:49;0.30;99.90
39815;DHT22;25495;45.948;4.568;2022-12-10T02:41:20;0.30;99.90
39815;DHT22;25495;45.948;4.568;2022-12-10T02:43:51;0.30;99.90
39815;DHT22;25495;45.948;4.568;2022-12-10T02:46:18;0.30;99.90
39815;DHT22;25495;45.948;4.568;2022-12-10T02:48:46;0.40;99.90
39815;DHT22;25495;45.948;4.568;2022-12-10T02:51:13;0.30;99.90
39815;DHT22;25495;45.948;4.568;2022-12-10T02:53:43;0.30;99.90
39815;DHT22;25495;45.948;4.568;2022-12-10T02:56:30;0.30;99.90
39815;DHT22;25495;45.948;4.568;2022-12-10T02:59:07;0.40;99.90
39815;DHT22;25495;45.948;4.568;2022-12-10T03:01:48;0.30;99.90
39815;DHT22;25495;45.948;4.568;2022-12-10T03:04:25;0.30;99.90
39815;DHT22;25495;45.948;4.568;2022-12-10T03:07:00;0.30;99.90
39815;DHT22;25495;45.948;4.568;2022-12-10T03:09:34;0.20;99.90
39815;DHT22;25495;45.948;4.568;2022-12-10T03:12:08;0.20;99.90
39815;DHT22;25495;45.948;4.568;2022-12-10T03:14:38;0.30;99.90
39815;DHT22;25495;45.948;4.568;2022-12-10T03:17:04;0.20;99.90
39815;DHT22;25495;45.948;4.568;2022-12-10T03:19:37;0.20;99.90
39815;DHT22;25495;45.948;4.568;2022-12-10T03:22:07;0.20;99.90
39815;DHT22;25495;45.948;4.568;2022-12-10T03:24:35;0.30;99.90
39815;DHT22;25495;45.948;4.568;2022-12-10T03:27:03;0.30;99.90
39815;DHT22;25495;45.948;4.568;2022-12-10T03:29:39;0.30;99.90
39815;DHT22;25495;45.948;4.568;2022-12-10T03:32:06;0.20;99.90
39815;DHT22;25495;45.948;4.568;2022-12-10T03:34:32;0.20;99.90
39815;DHT22;25495;45.948;4.568;2022-12-10T03:36:58;0.20;99.90
39815;DHT22;25495;45.948;4.568;2022-12-10T03:39:25;0.30;99.90
39815;DHT22;25495;45.948;4.568;2022-12-10T03:41:51;0.30;99.90
39815;DHT22;25495;45.948;4.568;2022-12-10T03:44:27;0.20;99.90
39815;DHT22;25495;45.948;4.568;2022-12-10T03:46:53;0.20;99.90
39815;DHT22;25495;45.948;4.568;2022-12-10T03:49:19;0.20;99.90
39815;DHT22;25495;45.948;4.568;2022-12-10T03:51:45;0.20;99.90
39815;DHT22;25495;45.948;4.568;2022-12-10T03:54:10;0.20;99.90
39815;DHT22;25495;45.948;4.568;2022-12-10T03:56:37;0.20;99.90
39815;DHT22;25495;45.948;4.568;2022-12-10T03:59:03;0.20;99.90
39815;DHT22;25495;45.948;4.568;2022-12-10T04:01:29;0.20;99.90
39815;DHT22;25495;45.948;4.568;2022-12-10T04:03:54;0.20;99.90
39815;DHT22;25495;45.948;4.568;2022-12-10T04:06:20;0.10;99.90
39815;DHT22;25495;45.948;4.568;2022-12-10T04:08:47;0.20;99.90
39815;DHT22;25495;45.948;4.568;2022-12-10T04:11:14;0.10;99.90
39815;DHT22;25495;45.948;4.568;2022-12-10T04:13:40;0.20;99.90
39815;DHT22;25495;45.948;4.568;2022-12-10T04:16:25;0.20;99.90
39815;DHT22;25495;45.948;4.568;2022-12-10T04:18:56;0.20;99.90
39815;DHT22;25495;45.948;4.568;2022-12-10T04:21:22;0.20;99.90
39815;DHT22;25495;45.948;4.568;2022-12-10T04:24:08;0.20;99.90
39815;DHT22;25495;45.948;4.568;2022-12-10T04:26:54;0.20;99.90
39815;DHT22;25495;45.948;4.568;2022-12-10T04:29:26;0.20;99.90
39815;DHT22;25495;45.948;4.568;2022-12-10T04:31:52;0.20;99.90
39815;DHT22;25495;45.948;4.568;2022-12-10T04:34:18;0.20;99.90
39815;DHT22;25495;45.948;4.568;2022-12-10T04:36:45;0.10;99.90
39815;DHT22;25495;45.948;4.568;2022-12-10T04:39:11;0.20;99.90
39815;DHT22;25495;45.948;4.568;2022-12-10T04:41:41;0.30;99.90
39815;DHT22;25495;45.948;4.568;2022-12-10T04:44:08;0.30;99.90
39815;DHT22;25495;45.948;4.568;2022-12-10T04:46:34;0.40;99.90
39815;DHT22;25495;45.948;4.568;2022-12-10T04:49:00;0.40;99.90
39815;DHT22;25495;45.948;4.568;2022-12-10T04:51:26;0.30;99.90
39815;DHT22;25495;45.948;4.568;2022-12-10T04:53:51;0.40;99.90
39815;DHT22;25495;45.948;4.568;2022-12-10T04:56:17;0.50;99.90
39815;DHT22;25495;45.948;4.568;2022-12-10T04:58:43;0.60;99.90
39815;DHT22;25495;45.948;4.568;2022-12-10T05:01:10;0.60;99.90
39815;DHT22;25495;45.948;4.568;2022-12-10T05:03:36;0.60;99.90
39815;DHT22;25495;45.948;4.568;2022-12-10T05:06:09;0.60;99.90
39815;DHT22;25495;45.948;4.568;2022-12-10T05:08:36;0.60;99.90
39815;DHT22;25495;45.948;4.568;2022-12-10T05:11:17;0.50;99.90
39815;DHT22;25495;45.948;4.568;2022-12-10T05:13:43;0.50;99.90
39815;DHT22;25495;45.948;4.568;2022-12-10T05:16:11;0.50;99.90
39815;DHT22;25495;45.948;4.568;2022-12-10T05:18:37;0.50;99.90
39815;DHT22;25495;45.948;4.568;2022-12-10T05:21:10;0.50;99.90
39815;DHT22;25495;45.948;4.568;2022-12-10T05:23:39;0.50;99.90
39815;DHT22;25495;45.948;4.568;2022-12-10T05:28:33;0.60;99.90
39815;DHT22;25495;45.948;4.568;2022-12-10T05:30:59;0.70;99.90
39815;DHT22;25495;45.948;4.568;2022-12-10T05:33:27;0.70;99.90
39815;DHT22;25495;45.948;4.568;2022-12-10T05:35:54;0.70;99.90
39815;DHT22;25495;45.948;4.568;2022-12-10T05:38:21;0.60;99.90
39815;DHT22;25495;45.948;4.568;2022-12-10T05:40:46;0.60;99.90
39815;DHT22;25495;45.948;4.568;2022-12-10T05:43:12;0.50;99.90
39815;DHT22;25495;45.948;4.568;2022-12-10T05:45:38;0.50;99.90
39815;DHT22;25495;45.948;4.568;2022-12-10T05:48:04;0.50;99.90
39815;DHT22;25495;45.948;4.568;2022-12-10T05:50:31;0.40;99.90
39815;DHT22;25495;45.948;4.568;2022-12-10T05:52:57;0.40;99.90
39815;DHT22;25495;45.948;4.568;2022-12-10T05:55:23;0.40;99.90
39815;DHT22;25495;45.948;4.568;2022-12-10T05:57:50;0.40;99.90
39815;DHT22;25495;45.948;4.568;2022-12-10T06:00:16;0.40;99.90
39815;DHT22;25495;45.948;4.568;2022-12-10T06:02:41;0.50;99.90
39815;DHT22;25495;45.948;4.568;2022-12-10T06:05:07;0.50;99.90
39815;DHT22;25495;45.948;4.568;2022-12-10T06:07:33;0.50;99.90
39815;DHT22;25495;45.948;4.568;2022-12-10T06:09:59;0.40;99.90
39815;DHT22;25495;45.948;4.568;2022-12-10T06:12:25;0.40;99.90
39815;DHT22;25495;45.948;4.568;2022-12-10T06:14:51;0.40;99.90
39815;DHT22;25495;45.948;4.568;2022-12-10T06:17:17;0.50;99.90
39815;DHT22;25495;45.948;4.568;2022-12-10T06:19:42;0.50;99.90
39815;DHT22;25495;45.948;4.568;2022-12-10T06:22:08;0.60;99.90
39815;DHT22;25495;45.948;4.568;2022-12-10T06:24:34;0.60;99.90
39815;DHT22;25495;45.948;4.568;2022-12-10T06:26:59;0.50;99.90
39815;DHT22;25495;45.948;4.568;2022-12-10T06:29:25;0.50;99.90
39815;DHT22;25495;45.948;4.568;2022-12-10T06:31:51;0.50;99.90
39815;DHT22;25495;45.948;4.568;2022-12-10T06:34:16;0.60;99.90
39815;DHT22;25495;45.948;4.568;2022-12-10T06:36:42;0.50;99.90
39815;DHT22;25495;45.948;4.568;2022-12-10T06:39:08;0.50;99.90
39815;DHT22;25495;45.948;4.568;2022-12-10T06:41:34;0.50;99.90
39815;DHT22;25495;45.948;4.568;2022-12-10T06:43:59;0.50;99.90
39815;DHT22;25495;45.948;4.568;2022-12-10T06:46:26;0.40;99.90
39815;DHT22;25495;45.948;4.568;2022-12-10T06:48:54;0.30;99.90
39815;DHT22;25495;45.948;4.568;2022-12-10T06:51:19;0.20;99.90
39815;DHT22;25495;45.948;4.568;2022-12-10T06:53:46;0.20;99.90
39815;DHT22;25495;45.948;4.568;2022-12-10T06:56:14;0.10;99.90
39815;DHT22;25495;45.948;4.568;2022-12-10T06:58:41;0.10;99.90
39815;DHT22;25495;45.948;4.568;2022-12-10T07:01:16;0.10;99.90
39815;DHT22;25495;45.948;4.568;2022-12-10T07:03:42;0.10;99.90
39815;DHT22;25495;45.948;4.568;2022-12-10T07:06:09;0.20;99.90
39815;DHT22;25495;45.948;4.568;2022-12-10T07:08:36;0.10;99.90
39815;DHT22;25495;45.948;4.568;2022-12-10T07:11:06;0.00;99.90
39815;DHT22;25495;45.948;4.568;2022-12-10T07:13:33;-0.10;99.90
39815;DHT22;25495;45.948;4.568;2022-12-10T07:15:59;0.00;99.90
39815;DHT22;25495;45.948;4.568;2022-12-10T07:18:25;-0.10;99.90
39815;DHT22;25495;45.948;4.568;2022-12-10T07:20:51;-0.10;99.90
39815;DHT22;25495;45.948;4.568;2022-12-10T07:23:17;-0.10;99.90
39815;DHT22;25495;45.948;4.568;2022-12-10T07:25:43;-0.10;99.90
39815;DHT22;25495;45.948;4.568;2022-12-10T07:28:09;0.00;99.90
39815;DHT22;25495;45.948;4.568;2022-12-10T07:30:35;0.00;99.90
39815;DHT22;25495;45.948;4.568;2022-12-10T07:33:00;0.00;99.90
39815;DHT22;25495;45.948;4.568;2022-12-10T07:35:26;0.00;99.90
39815;DHT22;25495;45.948;4.568;2022-12-10T07:37:52;0.10;99.90
39815;DHT22;25495;45.948;4.568;2022-12-10T07:40:17;0.20;99.90
39815;DHT22;25495;45.948;4.568;2022-12-10T07:42:43;0.10;99.90
39815;DHT22;25495;45.948;4.568;2022-12-10T07:45:09;0.20;99.90
39815;DHT22;25495;45.948;4.568;2022-12-10T07:47:37;0.30;99.90
39815;DHT22;25495;45.948;4.568;2022-12-10T07:50:03;0.30;99.90
39815;DHT22;25495;45.948;4.568;2022-12-10T07:52:29;0.20;99.90
39815;DHT22;25495;45.948;4.568;2022-12-10T07:54:55;0.30;99.90
39815;DHT22;25495;45.948;4.568;2022-12-10T07:57:21;0.20;99.90
39815;DHT22;25495;45.948;4.568;2022-12-10T07:59:46;0.20;99.90
39815;DHT22;25495;45.948;4.568;2022-12-10T08:02:12;0.20;99.90
39815;DHT22;25495;45.948;4.568;2022-12-10T08:04:38;0.20;99.90
39815;DHT22;25495;45.948;4.568;2022-12-10T08:07:04;0.10;99.90
39815;DHT22;25495;45.948;4.568;2022-12-10T08:09:30;0.10;99.90
39815;DHT22;25495;45.948;4.568;2022-12-10T08:11:56;0.10;99.90
39815;DHT22;25495;45.948;4.568;2022-12-10T08:14:21;0.10;99.90
39815;DHT22;25495;45.948;4.568;2022-12-10T08:16:47;0.10;99.90
39815;DHT22;25495;45.948;4.568;2022-12-10T08:19:13;0.10;99.90
39815;DHT22;25495;45.948;4.568;2022-12-10T08:21:38;0.10;99.90
39815;DHT22;25495;45.948;4.568;2022-12-10T08:24:05;0.10;99.90
39815;DHT22;25495;45.948;4.568;2022-12-10T08:26:33;0.20;99.90
39815;DHT22;25495;45.948;4.568;2022-12-10T08:28:59;0.30;99.90
39815;DHT22;25495;45.948;4.568;2022-12-10T08:31:26;0.20;99.90
39815;DHT22;25495;45.948;4.568;2022-12-10T08:33:53;0.20;99.90
39815;DHT22;25495;45.948;4.568;2022-12-10T08:36:19;0.20;99.90
39815;DHT22;25495;45.948;4.568;2022-12-10T08:38:46;0.00;99.90
39815;DHT22;25495;45.948;4.568;2022-12-10T08:41:17;0.00;99.90
39815;DHT22;25495;45.948;4.568;2022-12-10T08:43:43;0.00;99.90
39815;DHT22;25495;45.948;4.568;2022-12-10T08:46:11;0.20;99.90
39815;DHT22;25495;45.948;4.568;2022-12-10T08:48:37;0.20;99.90
39815;DHT22;25495;45.948;4.568;2022-12-10T08:51:04;0.00;99.90
39815;DHT22;25495;45.948;4.568;2022-12-10T08:53:33;-0.10;99.90
39815;DHT22;25495;45.948;4.568;2022-12-10T08:55:59;0.00;99.90
39815;DHT22;25495;45.948;4.568;2022-12-10T08:58:25;-0.10;99.90
39815;DHT22;25495;45.948;4.568;2022-12-10T09:00:50;0.00;99.90
39815;DHT22;25495;45.948;4.568;2022-12-10T09:03:17;-0.10;99.90
39815;DHT22;25495;45.948;4.568;2022-12-10T09:05:43;-0.10;99.90
39815;DHT22;25495;45.948;4.568;2022-12-10T09:08:09;-0.10;99.90
39815;DHT22;25495;45.948;4.568;2022-12-10T09:10:36;-0.10;99.90
39815;DHT22;25495;45.948;4.568;2022-12-10T09:13:04;-0.10;99.90
39815;DHT22;25495;45.948;4.568;2022-12-10T09:15:30;-0.10;99.90
39815;DHT22;25495;45.948;4.568;2022-12-10T09:17:55;-0.20;99.90
39815;DHT22;25495;45.948;4.568;2022-12-10T09:20:22;-0.10;99.90
39815;DHT22;25495;45.948;4.568;2022-12-10T09:22:48;-0.20;99.90
39815;DHT22;25495;45.948;4.568;2022-12-10T09:25:15;-0.10;99.90
39815;DHT22;25495;45.948;4.568;2022-12-10T09:27:42;-0.10;99.90
39815;DHT22;25495;45.948;4.568;2022-12-10T09:30:09;-0.10;99.90
39815;DHT22;25495;45.948;4.568;2022-12-10T09:32:35;-0.20;99.90
39815;DHT22;25495;45.948;4.568;2022-12-10T09:35:01;-0.10;99.90
39815;DHT22;25495;45.948;4.568;2022-12-10T09:37:27;-0.10;99.90
39815;DHT22;25495;45.948;4.568;2022-12-10T09:39:53;-0.10;99.90
39815;DHT22;25495;45.948;4.568;2022-12-10T09:45:51;-0.10;99.90
39815;DHT22;25495;45.948;4.568;2022-12-10T09:50:40;-0.10;99.90
39815;DHT22;25495;45.948;4.568;2022-12-10T09:53:13;-0.10;99.90
39815;DHT22;25495;45.948;4.568;2022-12-10T09:55:44;0.00;99.90
39815;DHT22;25495;45.948;4.568;2022-12-10T09:58:20;0.00;99.90
39815;DHT22;25495;45.948;4.568;2022-12-10T10:00:50;0.00;99.90
39815;DHT22;25495;45.948;4.568;2022-12-10T10:03:16;0.00;99.90
39815;DHT22;25495;45.948;4.568;2022-12-10T10:05:45;-0.10;99.90
39815;DHT22;25495;45.948;4.568;2022-12-10T10:10:44;0.10;99.90
39815;DHT22;25495;45.948;4.568;2022-12-10T10:16:27;-0.20;99.90
39815;DHT22;25495;45.948;4.568;2022-12-10T10:19:02;-0.20;99.90
39815;DHT22;25495;45.948;4.568;2022-12-10T10:21:45;-0.20;99.90
39815;DHT22;25495;45.948;4.568;2022-12-10T10:24:17;-0.30;99.90
39815;DHT22;25495;45.948;4.568;2022-12-10T10:26:44;-0.20;99.90
39815;DHT22;25495;45.948;4.568;2022-12-10T10:29:13;-0.30;99.90
39815;DHT22;25495;45.948;4.568;2022-12-10T10:31:42;-0.40;99.90
39815;DHT22;25495;45.948;4.568;2022-12-10T10:34:18;-0.50;99.90
39815;DHT22;25495;45.948;4.568;2022-12-10T10:36:44;-0.50;99.90
39815;DHT22;25495;45.948;4.568;2022-12-10T10:41:47;-0.30;99.90
39815;DHT22;25495;45.948;4.568;2022-12-10T10:44:17;-0.60;99.90
39815;DHT22;25495;45.948;4.568;2022-12-10T10:46:46;-0.60;99.90
39815;DHT22;25495;45.948;4.568;2022-12-10T10:49:27;-0.60;99.90
39815;DHT22;25495;45.948;4.568;2022-12-10T10:51:58;-0.70;99.90
39815;DHT22;25495;45.948;4.568;2022-12-10T10:54:50;-0.80;99.90
39815;DHT22;25495;45.948;4.568;2022-12-10T11:00:19;-0.70;99.90
39815;DHT22;25495;45.948;4.568;2022-12-10T11:02:47;-0.70;99.90
39815;DHT22;25495;45.948;4.568;2022-12-10T11:05:20;-0.70;99.90
39815;DHT22;25495;45.948;4.568;2022-12-10T11:07:59;-0.70;99.90
39815;DHT22;25495;45.948;4.568;2022-12-10T11:10:26;-0.70;99.90
39815;DHT22;25495;45.948;4.568;2022-12-10T11:13:06;-0.50;99.90
39815;DHT22;25495;45.948;4.568;2022-12-10T11:15:35;-0.40;99.90
39815;DHT22;25495;45.948;4.568;2022-12-10T11:18:02;-0.40;99.90
39815;DHT22;25495;45.948;4.568;2022-12-10T11:20:32;-0.20;99.90
39815;DHT22;25495;45.948;4.568;2022-12-10T11:23:01;-0.20;99.90
39815;DHT22;25495;45.948;4.568;2022-12-10T11:36:54;0.00;99.90
39815;DHT22;25495;45.948;4.568;2022-12-10T12:08:09;0.20;99.90
39815;DHT22;25495;45.948;4.568;2022-12-10T12:13:53;0.20;99.90
39815;DHT22;25495;45.948;4.568;2022-12-10T12:16:39;0.20;99.90
39815;DHT22;25495;45.948;4.568;2022-12-10T12:19:34;0.20;99.90
39815;DHT22;25495;45.948;4.568;2022-12-10T12:22:02;0.30;99.90
39815;DHT22;25495;45.948;4.568;2022-12-10T12:24:37;0.20;99.90
39815;DHT22;25495;45.948;4.568;2022-12-10T12:27:24;0.10;99.90
39815;DHT22;25495;45.948;4.568;2022-12-10T12:30:00;0.00;99.90
39815;DHT22;25495;45.948;4.568;2022-12-10T12:41:17;0.20;99.90
39815;DHT22;25495;45.948;4.568;2022-12-10T12:44:50;0.10;99.90
39815;DHT22;25495;45.948;4.568;2022-12-10T12:46:48;0.10;99.90
39815;DHT22;25495;45.948;4.568;2022-12-10T12:49:28;0.30;99.90
39815;DHT22;25495;45.948;4.568;2022-12-10T12:52:24;0.30;99.90
39815;DHT22;25495;45.948;4.568;2022-12-10T12:54:56;0.20;99.90
39815;DHT22;25495;45.948;4.568;2022-12-10T12:57:44;0.00;99.90
39815;DHT22;25495;45.948;4.568;2022-12-10T13:00:18;0.20;99.90
39815;DHT22;25495;45.948;4.568;2022-12-10T13:05:34;0.20;99.90
39815;DHT22;25495;45.948;4.568;2022-12-10T13:22:05;0.20;99.90
39815;DHT22;25495;45.948;4.568;2022-12-10T13:29:56;0.00;99.90
39815;DHT22;25495;45.948;4.568;2022-12-10T13:40:37;-0.20;99.90
39815;DHT22;25495;45.948;4.568;2022-12-10T13:46:50;-0.10;99.90
39815;DHT22;25495;45.948;4.568;2022-12-10T13:49:21;-0.10;99.90
39815;DHT22;25495;45.948;4.568;2022-12-10T13:57:32;-0.10;99.90
39815;DHT22;25495;45.948;4.568;2022-12-10T14:00:10;-0.20;99.90
39815;DHT22;25495;45.948;4.568;2022-12-10T14:05:57;-0.10;99.90
39815;DHT22;25495;45.948;4.568;2022-12-10T14:08:32;0.00;99.90
39815;DHT22;25495;45.948;4.568;2022-12-10T14:11:03;-0.10;99.90
39815;DHT22;25495;45.948;4.568;2022-12-10T14:13:39;-0.10;99.90
39815;DHT22;25495;45.948;4.568;2022-12-10T14:16:10;-0.10;99.90
39815;DHT22;25495;45.948;4.568;2022-12-10T14:18:38;-0.10;99.90
39815;DHT22;25495;45.948;4.568;2022-12-10T14:21:06;-0.10;99.90
39815;DHT22;25495;45.948;4.568;2022-12-10T14:23:33;-0.20;99.90
39815;DHT22;25495;45.948;4.568;2022-12-10T14:26:10;-0.20;99.90
39815;DHT22;25495;45.948;4.568;2022-12-10T14:28:54;-0.10;99.90
39815;DHT22;25495;45.948;4.568;2022-12-10T14:33:57;0.00;99.90
39815;DHT22;25495;45.948;4.568;2022-12-10T14:36:45;-0.10;99.90
39815;DHT22;25495;45.948;4.568;2022-12-10T14:39:15;-0.10;99.90
39815;DHT22;25495;45.948;4.568;2022-12-10T14:41:42;-0.10;99.90
39815;DHT22;25495;45.948;4.568;2022-12-10T14:44:16;0.00;99.90
39815;DHT22;25495;45.948;4.568;2022-12-10T14:46:43;-0.10;99.90
39815;DHT22;25495;45.948;4.568;2022-12-10T14:49:38;-0.10;99.90
39815;DHT22;25495;45.948;4.568;2022-12-10T14:52:14;0.00;99.90
39815;DHT22;25495;45.948;4.568;2022-12-10T14:54:41;0.10;99.90
39815;DHT22;25495;45.948;4.568;2022-12-10T14:57:28;0.10;99.90
39815;DHT22;25495;45.948;4.568;2022-12-10T15:00:03;0.20;99.90
39815;DHT22;25495;45.948;4.568;2022-12-10T15:02:33;0.10;99.90
39815;DHT22;25495;45.948;4.568;2022-12-10T15:05:00;0.00;99.90
39815;DHT22;25495;45.948;4.568;2022-12-10T15:07:31;-0.10;99.90
39815;DHT22;25495;45.948;4.568;2022-12-10T15:10:02;-0.10;99.90
39815;DHT22;25495;45.948;4.568;2022-12-10T15:15:10;-0.10;99.90
39815;DHT22;25495;45.948;4.568;2022-12-10T15:17:45;-0.20;99.90
39815;DHT22;25495;45.948;4.568;2022-12-10T15:20:25;-0.20;99.90
39815;DHT22;25495;45.948;4.568;2022-12-10T15:22:52;-0.30;99.90
39815;DHT22;25495;45.948;4.568;2022-12-10T15:25:25;-0.30;99.90
39815;DHT22;25495;45.948;4.568;2022-12-10T15:28:21;-0.30;99.90
39815;DHT22;25495;45.948;4.568;2022-12-10T15:30:47;-0.30;99.90
39815;DHT22;25495;45.948;4.568;2022-12-10T15:35:49;-0.40;99.90
39815;DHT22;25495;45.948;4.568;2022-12-10T15:38:22;-0.40;99.90
39815;DHT22;25495;45.948;4.568;2022-12-10T15:40:48;-0.50;99.90
39815;DHT22;25495;45.948;4.568;2022-12-10T15:43:26;-0.50;99.90
39815;DHT22;25495;45.948;4.568;2022-12-10T15:45:52;-0.50;99.90
39815;DHT22;25495;45.948;4.568;2022-12-10T15:48:19;-0.60;99.90
39815;DHT22;25495;45.948;4.568;2022-12-10T15:50:46;-0.60;99.90
39815;DHT22;25495;45.948;4.568;2022-12-10T15:53:14;-0.70;99.90
39815;DHT22;25495;45.948;4.568;2022-12-10T15:55:40;-0.70;99.90
39815;DHT22;25495;45.948;4.568;2022-12-10T15:58:13;-0.70;99.90
39815;DHT22;25495;45.948;4.568;2022-12-10T16:00:39;-0.70;99.90
39815;DHT22;25495;45.948;4.568;2022-12-10T16:03:11;-0.60;99.90
39815;DHT22;25495;45.948;4.568;2022-12-10T16:05:39;-0.60;99.90
39815;DHT22;25495;45.948;4.568;2022-12-10T16:08:24;-0.60;99.90
39815;DHT22;25495;45.948;4.568;2022-12-10T16:10:52;-0.60;99.90
39815;DHT22;25495;45.948;4.568;2022-12-10T16:13:37;-0.70;99.90
39815;DHT22;25495;45.948;4.568;2022-12-10T16:16:10;-0.70;99.90
39815;DHT22;25495;45.948;4.568;2022-12-10T16:18:38;-0.80;99.90
39815;DHT22;25495;45.948;4.568;2022-12-10T16:21:05;-0.70;99.90
39815;DHT22;25495;45.948;4.568;2022-12-10T16:23:32;-0.60;99.90
39815;DHT22;25495;45.948;4.568;2022-12-10T16:25:58;-0.70;99.90
39815;DHT22;25495;45.948;4.568;2022-12-10T16:28:25;-0.70;99.90
39815;DHT22;25495;45.948;4.568;2022-12-10T16:30:53;-0.70;99.90
39815;DHT22;25495;45.948;4.568;2022-12-10T16:33:21;-0.80;99.90
39815;DHT22;25495;45.948;4.568;2022-12-10T16:35:48;-0.80;99.90
39815;DHT22;25495;45.948;4.568;2022-12-10T16:38:16;-0.80;99.90
39815;DHT22;25495;45.948;4.568;2022-12-10T16:40:43;-0.70;99.90
39815;DHT22;25495;45.948;4.568;2022-12-10T16:43:22;-0.70;99.90
39815;DHT22;25495;45.948;4.568;2022-12-10T16:45:49;-0.80;99.90
39815;DHT22;25495;45.948;4.568;2022-12-10T16:48:15;-0.80;99.90
39815;DHT22;25495;45.948;4.568;2022-12-10T16:50:42;-0.80;99.90
39815;DHT22;25495;45.948;4.568;2022-12-10T16:53:23;-0.80;99.90
39815;DHT22;25495;45.948;4.568;2022-12-10T16:55:50;-0.70;99.90
39815;DHT22;25495;45.948;4.568;2022-12-10T16:58:16;-0.80;99.90
39815;DHT22;25495;45.948;4.568;2022-12-10T17:00:47;-0.80;99.90
39815;DHT22;25495;45.948;4.568;2022-12-10T17:03:14;-0.80;99.90
39815;DHT22;25495;45.948;4.568;2022-12-10T17:05:54;-0.80;99.90
39815;DHT22;25495;45.948;4.568;2022-12-10T17:08:21;-0.90;99.90
39815;DHT22;25495;45.948;4.568;2022-12-10T17:10:48;-0.90;99.90
39815;DHT22;25495;45.948;4.568;2022-12-10T17:13:37;-0.90;99.90
39815;DHT22;25495;45.948;4.568;2022-12-10T17:16:04;-0.90;99.90
39815;DHT22;25495;45.948;4.568;2022-12-10T17:18:30;-1.00;99.90
39815;DHT22;25495;45.948;4.568;2022-12-10T17:20:57;-1.00;99.90
39815;DHT22;25495;45.948;4.568;2022-12-10T17:23:23;-1.10;99.90
39815;DHT22;25495;45.948;4.568;2022-12-10T17:25:49;-1.10;99.90
39815;DHT22;25495;45.948;4.568;2022-12-10T17:28:18;-1.00;99.90
39815;DHT22;25495;45.948;4.568;2022-12-10T17:30:44;-1.10;99.90
39815;DHT22;25495;45.948;4.568;2022-12-10T17:33:18;-1.10;99.90
39815;DHT22;25495;45.948;4.568;2022-12-10T17:35:45;-1.00;99.90
39815;DHT22;25495;45.948;4.568;2022-12-10T17:38:19;-1.20;99.90
39815;DHT22;25495;45.948;4.568;2022-12-10T17:40:45;-1.20;99.90
39815;DHT22;25495;45.948;4.568;2022-12-10T17:43:11;-1.30;99.90
39815;DHT22;25495;45.948;4.568;2022-12-10T17:45:38;-1.20;99.90
39815;DHT22;25495;45.948;4.568;2022-12-10T17:48:04;-1.20;99.90
39815;DHT22;25495;45.948;4.568;2022-12-10T17:50:36;-0.10;99.90
39815;DHT22;25495;45.948;4.568;2022-12-10T17:53:04;-0.80;99.90
39815;DHT22;25495;45.948;4.568;2022-12-10T17:55:31;-1.10;99.90
39815;DHT22;25495;45.948;4.568;2022-12-10T17:57:57;-1.20;99.90
39815;DHT22;25495;45.948;4.568;2022-12-10T18:00:27;-0.60;99.90
39815;DHT22;25495;45.948;4.568;2022-12-10T18:02:55;-0.90;99.90
39815;DHT22;25495;45.948;4.568;2022-12-10T18:05:20;-0.90;99.90
39815;DHT22;25495;45.948;4.568;2022-12-10T18:07:46;-1.10;99.90
39815;DHT22;25495;45.948;4.568;2022-12-10T18:10:22;-1.20;99.90